sensor_id;sensor_type;location;lat;lon;timestamp;P1;durP1;ratioP1;P2;durP2;ratioP2
46653;SDS011;38960;51.074;17.004;2022-08-25T00:02:07;27.75;;;19.10;;
46653;SDS011;38960;51.074;17.004;2022-08-25T00:04:40;20.13;;;17.83;;
46653;SDS011;38960;51.074;17.004;2022-08-25T00:07:08;19.98;;;16.70;;
46653;SDS011;38960;51.074;17.004;2022-08-25T00:09:34;22.63;;;17.90;;
46653;SDS011;38960;51.074;17.004;2022-08-25T00:12:07;22.85;;;17.23;;
46653;SDS011;38960;51.074;17.004;2022-08-25T00:14:34;22.98;;;18.38;;
46653;SDS011;38960;51.074;17.004;2022-08-25T00:17:04;19.98;;;17.75;;
46653;SDS011;38960;51.074;17.004;2022-08-25T00:19:31;23.77;;;19.17;;
46653;SDS011;38960;51.074;17.004;2022-08-25T00:22:00;22.60;;;17.60;;
46653;SDS011;38960;51.074;17.004;2022-08-25T00:24:32;23.35;;;18.65;;
46653;SDS011;38960;51.074;17.004;2022-08-25T00:27:00;23.95;;;19.85;;
46653;SDS011;38960;51.074;17.004;2022-08-25T00:29:33;27.55;;;19.15;;
46653;SDS011;38960;51.074;17.004;2022-08-25T00:32:02;26.60;;;19.55;;
46653;SDS011;38960;51.074;17.004;2022-08-25T00:34:37;25.70;;;17.83;;
46653;SDS011;38960;51.074;17.004;2022-08-25T00:37:05;23.33;;;17.77;;
46653;SDS011;38960;51.074;17.004;2022-08-25T00:39:41;23.05;;;17.88;;
46653;SDS011;38960;51.074;17.004;2022-08-25T00:42:09;25.92;;;17.90;;
46653;SDS011;38960;51.074;17.004;2022-08-25T00:44:37;28.40;;;20.08;;
46653;SDS011;38960;51.074;17.004;2022-08-25T00:47:05;23.20;;;18.58;;
46653;SDS011;38960;51.074;17.004;2022-08-25T00:49:47;21.17;;;18.67;;
46653;SDS011;38960;51.074;17.004;2022-08-25T00:55:06;25.20;;;20.08;;
46653;SDS011;38960;51.074;17.004;2022-08-25T00:58:00;31.13;;;21.33;;
46653;SDS011;38960;51.074;17.004;2022-08-25T01:00:37;28.73;;;19.73;;
46653;SDS011;38960;51.074;17.004;2022-08-25T01:03:05;24.85;;;19.58;;
46653;SDS011;38960;51.074;17.004;2022-08-25T01:05:33;26.60;;;21.17;;
46653;SDS011;38960;51.074;17.004;2022-08-25T01:07:59;29.00;;;21.45;;
46653;SDS011;38960;51.074;17.004;2022-08-25T01:10:27;25.77;;;22.30;;
46653;SDS011;38960;51.074;17.004;2022-08-25T01:12:55;27.33;;;20.98;;
46653;SDS011;38960;51.074;17.004;2022-08-25T01:15:37;22.52;;;19.95;;
46653;SDS011;38960;51.074;17.004;2022-08-25T01:18:12;28.08;;;19.80;;
46653;SDS011;38960;51.074;17.004;2022-08-25T01:20:41;27.08;;;21.98;;
46653;SDS011;38960;51.074;17.004;2022-08-25T01:23:17;25.38;;;19.90;;
46653;SDS011;38960;51.074;17.004;2022-08-25T01:25:59;23.10;;;20.48;;
46653;SDS011;38960;51.074;17.004;2022-08-25T01:28:32;25.88;;;20.75;;
46653;SDS011;38960;51.074;17.004;2022-08-25T01:30:58;22.55;;;20.08;;
46653;SDS011;38960;51.074;17.004;2022-08-25T01:33:26;29.13;;;20.52;;
46653;SDS011;38960;51.074;17.004;2022-08-25T01:35:52;26.30;;;21.15;;
46653;SDS011;38960;51.074;17.004;2022-08-25T01:38:20;24.80;;;21.35;;
46653;SDS011;38960;51.074;17.004;2022-08-25T01:40:52;25.02;;;20.42;;
46653;SDS011;38960;51.074;17.004;2022-08-25T01:43:25;23.45;;;21.05;;
46653;SDS011;38960;51.074;17.004;2022-08-25T01:45:59;24.92;;;21.85;;
46653;SDS011;38960;51.074;17.004;2022-08-25T01:48:26;32.35;;;21.00;;
46653;SDS011;38960;51.074;17.004;2022-08-25T01:50:52;24.05;;;20.80;;
46653;SDS011;38960;51.074;17.004;2022-08-25T01:53:25;29.15;;;21.42;;
46653;SDS011;38960;51.074;17.004;2022-08-25T01:55:54;23.85;;;21.25;;
46653;SDS011;38960;51.074;17.004;2022-08-25T01:58:30;30.88;;;22.17;;
46653;SDS011;38960;51.074;17.004;2022-08-25T02:00:59;28.00;;;20.25;;
46653;SDS011;38960;51.074;17.004;2022-08-25T02:03:26;26.15;;;21.23;;
46653;SDS011;38960;51.074;17.004;2022-08-25T02:05:53;25.45;;;21.60;;
46653;SDS011;38960;51.074;17.004;2022-08-25T02:08:19;29.35;;;22.30;;
46653;SDS011;38960;51.074;17.004;2022-08-25T02:10:47;25.10;;;22.10;;
46653;SDS011;38960;51.074;17.004;2022-08-25T02:13:14;29.42;;;22.13;;
46653;SDS011;38960;51.074;17.004;2022-08-25T02:15:46;31.40;;;23.02;;
46653;SDS011;38960;51.074;17.004;2022-08-25T02:18:14;24.92;;;21.67;;
46653;SDS011;38960;51.074;17.004;2022-08-25T02:20:39;27.23;;;21.83;;
46653;SDS011;38960;51.074;17.004;2022-08-25T02:23:06;23.95;;;21.50;;
46653;SDS011;38960;51.074;17.004;2022-08-25T02:25:31;29.02;;;22.20;;
46653;SDS011;38960;51.074;17.004;2022-08-25T02:28:04;30.98;;;22.35;;
46653;SDS011;38960;51.074;17.004;2022-08-25T02:30:30;27.35;;;20.48;;
46653;SDS011;38960;51.074;17.004;2022-08-25T02:32:58;24.63;;;19.83;;
46653;SDS011;38960;51.074;17.004;2022-08-25T02:35:25;29.17;;;22.65;;
46653;SDS011;38960;51.074;17.004;2022-08-25T02:37:50;25.00;;;22.38;;
46653;SDS011;38960;51.074;17.004;2022-08-25T02:40:17;27.45;;;21.90;;
46653;SDS011;38960;51.074;17.004;2022-08-25T02:42:46;28.23;;;20.88;;
46653;SDS011;38960;51.074;17.004;2022-08-25T02:45:15;30.45;;;21.60;;
46653;SDS011;38960;51.074;17.004;2022-08-25T02:47:42;27.33;;;22.10;;
46653;SDS011;38960;51.074;17.004;2022-08-25T02:50:09;26.77;;;22.77;;
46653;SDS011;38960;51.074;17.004;2022-08-25T02:52:36;26.45;;;21.10;;
46653;SDS011;38960;51.074;17.004;2022-08-25T02:55:02;25.17;;;22.45;;
46653;SDS011;38960;51.074;17.004;2022-08-25T02:57:30;27.15;;;20.70;;
46653;SDS011;38960;51.074;17.004;2022-08-25T02:59:56;28.17;;;23.33;;
46653;SDS011;38960;51.074;17.004;2022-08-25T03:02:23;24.33;;;21.67;;
46653;SDS011;38960;51.074;17.004;2022-08-25T03:04:51;24.92;;;21.63;;
46653;SDS011;38960;51.074;17.004;2022-08-25T03:07:19;27.90;;;21.88;;
46653;SDS011;38960;51.074;17.004;2022-08-25T03:09:46;28.85;;;22.00;;
46653;SDS011;38960;51.074;17.004;2022-08-25T03:12:12;24.98;;;22.08;;
46653;SDS011;38960;51.074;17.004;2022-08-25T03:14:38;29.58;;;22.42;;
46653;SDS011;38960;51.074;17.004;2022-08-25T03:17:06;30.67;;;22.85;;
46653;SDS011;38960;51.074;17.004;2022-08-25T03:19:34;27.65;;;24.65;;
46653;SDS011;38960;51.074;17.004;2022-08-25T03:22:00;27.60;;;22.02;;
46653;SDS011;38960;51.074;17.004;2022-08-25T03:24:25;37.65;;;24.85;;
46653;SDS011;38960;51.074;17.004;2022-08-25T03:26:52;31.17;;;22.23;;
46653;SDS011;38960;51.074;17.004;2022-08-25T03:29:18;33.80;;;24.58;;
46653;SDS011;38960;51.074;17.004;2022-08-25T03:31:45;28.27;;;23.65;;
46653;SDS011;38960;51.074;17.004;2022-08-25T03:34:11;36.17;;;23.13;;
46653;SDS011;38960;51.074;17.004;2022-08-25T03:36:38;30.38;;;23.60;;
46653;SDS011;38960;51.074;17.004;2022-08-25T03:39:04;33.00;;;23.88;;
46653;SDS011;38960;51.074;17.004;2022-08-25T03:41:30;38.38;;;25.38;;
46653;SDS011;38960;51.074;17.004;2022-08-25T03:43:59;37.30;;;23.80;;
46653;SDS011;38960;51.074;17.004;2022-08-25T03:46:30;28.00;;;23.00;;
46653;SDS011;38960;51.074;17.004;2022-08-25T03:48:58;35.35;;;23.63;;
46653;SDS011;38960;51.074;17.004;2022-08-25T03:51:26;32.92;;;23.30;;
46653;SDS011;38960;51.074;17.004;2022-08-25T03:53:54;36.92;;;22.45;;
46653;SDS011;38960;51.074;17.004;2022-08-25T03:56:20;30.90;;;23.92;;
46653;SDS011;38960;51.074;17.004;2022-08-25T03:58:46;26.35;;;22.88;;
46653;SDS011;38960;51.074;17.004;2022-08-25T04:01:12;30.52;;;24.33;;
46653;SDS011;38960;51.074;17.004;2022-08-25T04:03:39;34.92;;;23.35;;
46653;SDS011;38960;51.074;17.004;2022-08-25T04:06:07;30.20;;;23.83;;
46653;SDS011;38960;51.074;17.004;2022-08-25T04:08:35;32.28;;;24.38;;
46653;SDS011;38960;51.074;17.004;2022-08-25T04:11:14;32.45;;;22.33;;
46653;SDS011;38960;51.074;17.004;2022-08-25T04:13:45;37.97;;;23.83;;
46653;SDS011;38960;51.074;17.004;2022-08-25T04:16:15;32.40;;;23.83;;
46653;SDS011;38960;51.074;17.004;2022-08-25T04:18:47;29.00;;;23.42;;
46653;SDS011;38960;51.074;17.004;2022-08-25T04:21:20;28.13;;;23.50;;
46653;SDS011;38960;51.074;17.004;2022-08-25T04:23:48;39.88;;;23.77;;
46653;SDS011;38960;51.074;17.004;2022-08-25T04:26:20;33.65;;;24.25;;
46653;SDS011;38960;51.074;17.004;2022-08-25T04:28:53;29.63;;;23.05;;
46653;SDS011;38960;51.074;17.004;2022-08-25T04:31:23;34.13;;;23.17;;
46653;SDS011;38960;51.074;17.004;2022-08-25T04:33:52;25.48;;;20.75;;
46653;SDS011;38960;51.074;17.004;2022-08-25T04:36:26;26.02;;;22.38;;
46653;SDS011;38960;51.074;17.004;2022-08-25T04:38:54;33.85;;;24.38;;
46653;SDS011;38960;51.074;17.004;2022-08-25T04:41:21;34.55;;;23.45;;
46653;SDS011;38960;51.074;17.004;2022-08-25T04:43:49;30.00;;;23.85;;
46653;SDS011;38960;51.074;17.004;2022-08-25T04:46:18;30.65;;;22.65;;
46653;SDS011;38960;51.074;17.004;2022-08-25T04:48:49;28.88;;;21.48;;
46653;SDS011;38960;51.074;17.004;2022-08-25T04:51:22;26.30;;;22.90;;
46653;SDS011;38960;51.074;17.004;2022-08-25T04:53:53;29.80;;;23.15;;
46653;SDS011;38960;51.074;17.004;2022-08-25T04:56:21;28.60;;;22.13;;
46653;SDS011;38960;51.074;17.004;2022-08-25T04:58:49;30.50;;;23.90;;
46653;SDS011;38960;51.074;17.004;2022-08-25T05:01:17;29.95;;;23.55;;
46653;SDS011;38960;51.074;17.004;2022-08-25T05:03:44;31.58;;;22.65;;
46653;SDS011;38960;51.074;17.004;2022-08-25T05:06:15;30.35;;;21.88;;
46653;SDS011;38960;51.074;17.004;2022-08-25T05:08:45;27.27;;;23.77;;
46653;SDS011;38960;51.074;17.004;2022-08-25T05:11:13;30.75;;;22.63;;
46653;SDS011;38960;51.074;17.004;2022-08-25T05:13:48;33.15;;;22.50;;
46653;SDS011;38960;51.074;17.004;2022-08-25T05:16:16;29.00;;;23.90;;
46653;SDS011;38960;51.074;17.004;2022-08-25T05:18:43;28.55;;;22.25;;
46653;SDS011;38960;51.074;17.004;2022-08-25T05:21:10;39.97;;;23.75;;
46653;SDS011;38960;51.074;17.004;2022-08-25T05:23:37;33.92;;;22.95;;
46653;SDS011;38960;51.074;17.004;2022-08-25T05:26:05;30.23;;;22.50;;
46653;SDS011;38960;51.074;17.004;2022-08-25T05:28:38;30.27;;;22.45;;
46653;SDS011;38960;51.074;17.004;2022-08-25T05:31:06;30.25;;;22.02;;
46653;SDS011;38960;51.074;17.004;2022-08-25T05:33:33;31.92;;;22.58;;
46653;SDS011;38960;51.074;17.004;2022-08-25T05:36:01;29.42;;;22.90;;
46653;SDS011;38960;51.074;17.004;2022-08-25T05:38:27;30.63;;;21.88;;
46653;SDS011;38960;51.074;17.004;2022-08-25T05:40:58;34.42;;;24.58;;
46653;SDS011;38960;51.074;17.004;2022-08-25T05:43:33;32.80;;;24.60;;
46653;SDS011;38960;51.074;17.004;2022-08-25T05:46:06;30.70;;;21.52;;
46653;SDS011;38960;51.074;17.004;2022-08-25T05:48:33;34.05;;;21.17;;
46653;SDS011;38960;51.074;17.004;2022-08-25T05:51:03;30.33;;;22.63;;
46653;SDS011;38960;51.074;17.004;2022-08-25T05:53:32;35.70;;;24.47;;
46653;SDS011;38960;51.074;17.004;2022-08-25T05:56:00;30.00;;;22.70;;
46653;SDS011;38960;51.074;17.004;2022-08-25T05:58:26;30.08;;;22.38;;
46653;SDS011;38960;51.074;17.004;2022-08-25T06:01:03;34.30;;;23.48;;
46653;SDS011;38960;51.074;17.004;2022-08-25T06:03:59;42.15;;;25.10;;
46653;SDS011;38960;51.074;17.004;2022-08-25T06:06:34;43.22;;;26.50;;
46653;SDS011;38960;51.074;17.004;2022-08-25T06:09:01;38.15;;;27.30;;
46653;SDS011;38960;51.074;17.004;2022-08-25T06:11:31;39.38;;;25.42;;
46653;SDS011;38960;51.074;17.004;2022-08-25T06:14:00;37.83;;;25.65;;
46653;SDS011;38960;51.074;17.004;2022-08-25T06:16:25;37.83;;;24.38;;
46653;SDS011;38960;51.074;17.004;2022-08-25T06:18:51;39.95;;;26.52;;
46653;SDS011;38960;51.074;17.004;2022-08-25T06:21:16;36.47;;;24.40;;
46653;SDS011;38960;51.074;17.004;2022-08-25T06:23:42;35.88;;;27.17;;
46653;SDS011;38960;51.074;17.004;2022-08-25T06:26:09;38.53;;;27.60;;
46653;SDS011;38960;51.074;17.004;2022-08-25T06:28:35;44.08;;;27.83;;
46653;SDS011;38960;51.074;17.004;2022-08-25T06:31:01;38.38;;;27.02;;
46653;SDS011;38960;51.074;17.004;2022-08-25T06:33:27;44.53;;;28.23;;
46653;SDS011;38960;51.074;17.004;2022-08-25T06:35:53;38.35;;;27.27;;
46653;SDS011;38960;51.074;17.004;2022-08-25T06:38:23;43.63;;;27.50;;
46653;SDS011;38960;51.074;17.004;2022-08-25T06:40:49;34.45;;;26.48;;
46653;SDS011;38960;51.074;17.004;2022-08-25T06:43:17;37.50;;;27.52;;
46653;SDS011;38960;51.074;17.004;2022-08-25T06:45:45;36.83;;;28.08;;
46653;SDS011;38960;51.074;17.004;2022-08-25T06:48:12;47.00;;;27.13;;
46653;SDS011;38960;51.074;17.004;2022-08-25T06:50:38;36.33;;;27.92;;
46653;SDS011;38960;51.074;17.004;2022-08-25T06:53:04;44.65;;;29.83;;
46653;SDS011;38960;51.074;17.004;2022-08-25T06:55:30;39.50;;;26.88;;
46653;SDS011;38960;51.074;17.004;2022-08-25T06:57:55;39.25;;;28.15;;
46653;SDS011;38960;51.074;17.004;2022-08-25T07:00:21;41.67;;;30.08;;
46653;SDS011;38960;51.074;17.004;2022-08-25T07:02:47;53.97;;;31.90;;
46653;SDS011;38960;51.074;17.004;2022-08-25T07:05:12;48.38;;;31.35;;
46653;SDS011;38960;51.074;17.004;2022-08-25T07:07:38;42.63;;;27.20;;
46653;SDS011;38960;51.074;17.004;2022-08-25T07:10:03;43.35;;;30.15;;
46653;SDS011;38960;51.074;17.004;2022-08-25T07:12:29;39.15;;;27.13;;
46653;SDS011;38960;51.074;17.004;2022-08-25T07:14:55;42.58;;;27.85;;
46653;SDS011;38960;51.074;17.004;2022-08-25T07:17:21;39.60;;;28.17;;
46653;SDS011;38960;51.074;17.004;2022-08-25T07:19:47;42.40;;;28.90;;
46653;SDS011;38960;51.074;17.004;2022-08-25T07:22:13;45.33;;;30.27;;
46653;SDS011;38960;51.074;17.004;2022-08-25T07:24:39;40.85;;;28.50;;
46653;SDS011;38960;51.074;17.004;2022-08-25T07:27:05;43.22;;;27.88;;
46653;SDS011;38960;51.074;17.004;2022-08-25T07:29:31;40.97;;;29.02;;
46653;SDS011;38960;51.074;17.004;2022-08-25T07:31:58;38.08;;;28.50;;
46653;SDS011;38960;51.074;17.004;2022-08-25T07:34:27;37.40;;;28.20;;
46653;SDS011;38960;51.074;17.004;2022-08-25T07:37:11;30.45;;;25.20;;
46653;SDS011;38960;51.074;17.004;2022-08-25T07:39:36;36.92;;;24.30;;
46653;SDS011;38960;51.074;17.004;2022-08-25T07:42:02;34.70;;;25.30;;
46653;SDS011;38960;51.074;17.004;2022-08-25T07:44:28;36.97;;;23.73;;
46653;SDS011;38960;51.074;17.004;2022-08-25T07:46:55;34.25;;;22.70;;
46653;SDS011;38960;51.074;17.004;2022-08-25T07:49:21;29.52;;;20.23;;
46653;SDS011;38960;51.074;17.004;2022-08-25T07:51:47;28.20;;;20.27;;
46653;SDS011;38960;51.074;17.004;2022-08-25T07:54:12;27.13;;;17.92;;
46653;SDS011;38960;51.074;17.004;2022-08-25T07:56:39;25.65;;;18.65;;
46653;SDS011;38960;51.074;17.004;2022-08-25T07:59:07;22.25;;;15.30;;
46653;SDS011;38960;51.074;17.004;2022-08-25T08:01:33;19.45;;;15.02;;
46653;SDS011;38960;51.074;17.004;2022-08-25T08:03:58;21.65;;;14.07;;
46653;SDS011;38960;51.074;17.004;2022-08-25T08:06:24;22.42;;;13.95;;
46653;SDS011;38960;51.074;17.004;2022-08-25T08:08:50;21.75;;;15.05;;
46653;SDS011;38960;51.074;17.004;2022-08-25T08:11:17;16.92;;;11.23;;
46653;SDS011;38960;51.074;17.004;2022-08-25T08:13:45;24.70;;;12.18;;
46653;SDS011;38960;51.074;17.004;2022-08-25T08:16:12;19.30;;;11.18;;
46653;SDS011;38960;51.074;17.004;2022-08-25T08:18:38;18.70;;;11.73;;
46653;SDS011;38960;51.074;17.004;2022-08-25T08:21:04;17.45;;;12.65;;
46653;SDS011;38960;51.074;17.004;2022-08-25T08:23:38;15.48;;;11.38;;
46653;SDS011;38960;51.074;17.004;2022-08-25T08:26:04;16.55;;;11.55;;
46653;SDS011;38960;51.074;17.004;2022-08-25T08:28:30;17.20;;;11.65;;
46653;SDS011;38960;51.074;17.004;2022-08-25T08:30:55;13.88;;;9.40;;
46653;SDS011;38960;51.074;17.004;2022-08-25T08:33:22;12.73;;;9.00;;
46653;SDS011;38960;51.074;17.004;2022-08-25T08:35:54;17.13;;;10.65;;
46653;SDS011;38960;51.074;17.004;2022-08-25T08:38:22;16.02;;;9.00;;
46653;SDS011;38960;51.074;17.004;2022-08-25T08:40:53;22.63;;;10.32;;
46653;SDS011;38960;51.074;17.004;2022-08-25T08:43:42;12.95;;;8.80;;
46653;SDS011;38960;51.074;17.004;2022-08-25T08:46:08;14.07;;;8.77;;
46653;SDS011;38960;51.074;17.004;2022-08-25T08:48:39;14.65;;;8.18;;
46653;SDS011;38960;51.074;17.004;2022-08-25T08:53:56;15.57;;;7.43;;
46653;SDS011;38960;51.074;17.004;2022-08-25T08:56:27;14.57;;;7.03;;
46653;SDS011;38960;51.074;17.004;2022-08-25T08:59:00;14.23;;;8.02;;
46653;SDS011;38960;51.074;17.004;2022-08-25T09:01:50;14.93;;;7.07;;
46653;SDS011;38960;51.074;17.004;2022-08-25T09:09:31;17.15;;;7.13;;
46653;SDS011;38960;51.074;17.004;2022-08-25T09:12:11;9.45;;;6.45;;
46653;SDS011;38960;51.074;17.004;2022-08-25T09:20:14;15.68;;;5.97;;
46653;SDS011;38960;51.074;17.004;2022-08-25T09:30:24;13.07;;;6.00;;
46653;SDS011;38960;51.074;17.004;2022-08-25T09:32:52;17.83;;;6.22;;
46653;SDS011;38960;51.074;17.004;2022-08-25T09:35:27;13.73;;;5.95;;
46653;SDS011;38960;51.074;17.004;2022-08-25T09:37:59;15.20;;;5.35;;
46653;SDS011;38960;51.074;17.004;2022-08-25T09:40:31;17.35;;;7.30;;
46653;SDS011;38960;51.074;17.004;2022-08-25T09:42:59;13.57;;;6.38;;
46653;SDS011;38960;51.074;17.004;2022-08-25T09:48:01;17.73;;;5.80;;
46653;SDS011;38960;51.074;17.004;2022-08-25T09:50:29;14.20;;;5.47;;
46653;SDS011;38960;51.074;17.004;2022-08-25T09:52:59;18.42;;;4.82;;
46653;SDS011;38960;51.074;17.004;2022-08-25T09:55:36;16.15;;;5.30;;
46653;SDS011;38960;51.074;17.004;2022-08-25T09:58:12;16.77;;;4.95;;
46653;SDS011;38960;51.074;17.004;2022-08-25T10:00:40;20.83;;;6.50;;
46653;SDS011;38960;51.074;17.004;2022-08-25T10:03:07;22.95;;;5.22;;
46653;SDS011;38960;51.074;17.004;2022-08-25T10:05:34;17.65;;;5.13;;
46653;SDS011;38960;51.074;17.004;2022-08-25T10:08:09;13.38;;;4.47;;
46653;SDS011;38960;51.074;17.004;2022-08-25T10:10:39;14.18;;;5.82;;
46653;SDS011;38960;51.074;17.004;2022-08-25T10:13:16;18.95;;;5.35;;
46653;SDS011;38960;51.074;17.004;2022-08-25T10:15:44;19.67;;;5.13;;
46653;SDS011;38960;51.074;17.004;2022-08-25T10:18:24;14.70;;;5.03;;
46653;SDS011;38960;51.074;17.004;2022-08-25T10:21:10;15.93;;;4.45;;
46653;SDS011;38960;51.074;17.004;2022-08-25T10:23:48;20.38;;;5.03;;
46653;SDS011;38960;51.074;17.004;2022-08-25T10:29:02;23.25;;;5.22;;
46653;SDS011;38960;51.074;17.004;2022-08-25T10:37:31;22.65;;;5.18;;
46653;SDS011;38960;51.074;17.004;2022-08-25T10:43:19;18.50;;;5.07;;
46653;SDS011;38960;51.074;17.004;2022-08-25T10:45:33;18.65;;;5.05;;
46653;SDS011;38960;51.074;17.004;2022-08-25T10:50:55;19.42;;;5.57;;
46653;SDS011;38960;51.074;17.004;2022-08-25T10:53:38;24.08;;;5.47;;
46653;SDS011;38960;51.074;17.004;2022-08-25T10:56:11;19.33;;;6.15;;
46653;SDS011;38960;51.074;17.004;2022-08-25T10:58:58;25.38;;;5.47;;
46653;SDS011;38960;51.074;17.004;2022-08-25T11:06:54;20.88;;;4.70;;
46653;SDS011;38960;51.074;17.004;2022-08-25T11:09:26;29.00;;;5.90;;
46653;SDS011;38960;51.074;17.004;2022-08-25T11:11:55;21.30;;;5.00;;
46653;SDS011;38960;51.074;17.004;2022-08-25T11:14:30;19.77;;;5.80;;
46653;SDS011;38960;51.074;17.004;2022-08-25T11:17:04;20.77;;;5.63;;
46653;SDS011;38960;51.074;17.004;2022-08-25T11:19:41;20.13;;;5.50;;
46653;SDS011;38960;51.074;17.004;2022-08-25T11:24:52;24.65;;;6.38;;
46653;SDS011;38960;51.074;17.004;2022-08-25T11:27:22;23.45;;;5.18;;
46653;SDS011;38960;51.074;17.004;2022-08-25T11:30:04;24.88;;;5.55;;
46653;SDS011;38960;51.074;17.004;2022-08-25T11:32:33;22.87;;;5.67;;
46653;SDS011;38960;51.074;17.004;2022-08-25T11:35:00;18.35;;;5.80;;
46653;SDS011;38960;51.074;17.004;2022-08-25T11:37:27;25.10;;;6.15;;
46653;SDS011;38960;51.074;17.004;2022-08-25T11:50:33;20.25;;;5.32;;
46653;SDS011;38960;51.074;17.004;2022-08-25T11:53:18;30.08;;;5.95;;
46653;SDS011;38960;51.074;17.004;2022-08-25T11:55:48;16.95;;;4.88;;
46653;SDS011;38960;51.074;17.004;2022-08-25T12:00:53;28.38;;;6.57;;
46653;SDS011;38960;51.074;17.004;2022-08-25T12:09:14;25.20;;;5.38;;
46653;SDS011;38960;51.074;17.004;2022-08-25T12:11:41;27.27;;;6.45;;
46653;SDS011;38960;51.074;17.004;2022-08-25T12:30:12;25.45;;;6.95;;
46653;SDS011;38960;51.074;17.004;2022-08-25T12:36:00;28.42;;;6.03;;
46653;SDS011;38960;51.074;17.004;2022-08-25T12:38:31;20.70;;;5.88;;
46653;SDS011;38960;51.074;17.004;2022-08-25T12:41:05;25.13;;;7.35;;
46653;SDS011;38960;51.074;17.004;2022-08-25T12:43:36;27.75;;;6.25;;
46653;SDS011;38960;51.074;17.004;2022-08-25T12:51:22;22.20;;;5.72;;
46653;SDS011;38960;51.074;17.004;2022-08-25T12:53:56;21.40;;;6.03;;
46653;SDS011;38960;51.074;17.004;2022-08-25T13:01:31;25.55;;;5.78;;
46653;SDS011;38960;51.074;17.004;2022-08-25T13:04:08;22.05;;;6.18;;
46653;SDS011;38960;51.074;17.004;2022-08-25T13:07:27;28.45;;;5.65;;
46653;SDS011;38960;51.074;17.004;2022-08-25T13:09:59;23.30;;;7.07;;
46653;SDS011;38960;51.074;17.004;2022-08-25T13:12:39;23.88;;;7.35;;
46653;SDS011;38960;51.074;17.004;2022-08-25T13:15:14;30.17;;;7.22;;
46653;SDS011;38960;51.074;17.004;2022-08-25T13:17:49;29.57;;;6.43;;
46653;SDS011;38960;51.074;17.004;2022-08-25T13:22:46;22.42;;;5.72;;
46653;SDS011;38960;51.074;17.004;2022-08-25T13:25:20;29.45;;;7.03;;
46653;SDS011;38960;51.074;17.004;2022-08-25T13:27:48;32.08;;;5.93;;
46653;SDS011;38960;51.074;17.004;2022-08-25T13:30:35;26.80;;;6.65;;
46653;SDS011;38960;51.074;17.004;2022-08-25T13:33:17;31.58;;;6.15;;
46653;SDS011;38960;51.074;17.004;2022-08-25T13:35:54;46.08;;;6.85;;
46653;SDS011;38960;51.074;17.004;2022-08-25T13:38:39;34.70;;;6.80;;
46653;SDS011;38960;51.074;17.004;2022-08-25T13:41:05;43.30;;;7.05;;
46653;SDS011;38960;51.074;17.004;2022-08-25T13:43:32;34.92;;;7.80;;
46653;SDS011;38960;51.074;17.004;2022-08-25T13:45:59;33.72;;;6.53;;
46653;SDS011;38960;51.074;17.004;2022-08-25T13:48:34;31.23;;;6.90;;
46653;SDS011;38960;51.074;17.004;2022-08-25T13:51:21;33.47;;;5.97;;
46653;SDS011;38960;51.074;17.004;2022-08-25T13:53:50;32.00;;;6.80;;
46653;SDS011;38960;51.074;17.004;2022-08-25T13:56:22;32.45;;;6.10;;
46653;SDS011;38960;51.074;17.004;2022-08-25T13:58:49;30.75;;;5.65;;
46653;SDS011;38960;51.074;17.004;2022-08-25T14:03:50;32.83;;;5.97;;
46653;SDS011;38960;51.074;17.004;2022-08-25T14:06:24;26.58;;;6.22;;
46653;SDS011;38960;51.074;17.004;2022-08-25T14:14:02;36.85;;;6.47;;
46653;SDS011;38960;51.074;17.004;2022-08-25T14:16:31;24.70;;;5.00;;
46653;SDS011;38960;51.074;17.004;2022-08-25T14:18:58;32.53;;;6.80;;
46653;SDS011;38960;51.074;17.004;2022-08-25T14:21:30;29.38;;;6.80;;
46653;SDS011;38960;51.074;17.004;2022-08-25T14:23:57;36.55;;;7.22;;
46653;SDS011;38960;51.074;17.004;2022-08-25T14:26:22;36.97;;;6.88;;
46653;SDS011;38960;51.074;17.004;2022-08-25T14:28:48;31.42;;;6.03;;
46653;SDS011;38960;51.074;17.004;2022-08-25T14:31:24;26.80;;;6.70;;
46653;SDS011;38960;51.074;17.004;2022-08-25T14:34:06;37.17;;;7.45;;
46653;SDS011;38960;51.074;17.004;2022-08-25T14:36:34;32.55;;;5.70;;
46653;SDS011;38960;51.074;17.004;2022-08-25T14:39:01;34.08;;;6.07;;
46653;SDS011;38960;51.074;17.004;2022-08-25T14:41:31;23.50;;;6.13;;
46653;SDS011;38960;51.074;17.004;2022-08-25T14:43:58;34.97;;;6.45;;
46653;SDS011;38960;51.074;17.004;2022-08-25T14:46:28;28.85;;;5.85;;
46653;SDS011;38960;51.074;17.004;2022-08-25T14:51:24;29.20;;;5.25;;
46653;SDS011;38960;51.074;17.004;2022-08-25T14:53:54;26.80;;;6.88;;
46653;SDS011;38960;51.074;17.004;2022-08-25T14:56:22;24.65;;;5.82;;
46653;SDS011;38960;51.074;17.004;2022-08-25T14:58:47;29.00;;;6.75;;
46653;SDS011;38960;51.074;17.004;2022-08-25T15:01:13;22.88;;;6.78;;
46653;SDS011;38960;51.074;17.004;2022-08-25T15:03:41;27.10;;;5.72;;
46653;SDS011;38960;51.074;17.004;2022-08-25T15:06:09;24.75;;;5.60;;
46653;SDS011;38960;51.074;17.004;2022-08-25T15:08:36;33.67;;;6.85;;
46653;SDS011;38960;51.074;17.004;2022-08-25T15:11:20;24.95;;;7.05;;
46653;SDS011;38960;51.074;17.004;2022-08-25T15:13:45;37.63;;;7.55;;
46653;SDS011;38960;51.074;17.004;2022-08-25T15:16:11;30.60;;;7.43;;
46653;SDS011;38960;51.074;17.004;2022-08-25T15:18:40;37.45;;;6.63;;
46653;SDS011;38960;51.074;17.004;2022-08-25T15:21:06;26.33;;;5.47;;
46653;SDS011;38960;51.074;17.004;2022-08-25T15:23:32;30.13;;;5.40;;
46653;SDS011;38960;51.074;17.004;2022-08-25T15:25:58;43.42;;;6.80;;
46653;SDS011;38960;51.074;17.004;2022-08-25T15:28:23;30.90;;;6.78;;
46653;SDS011;38960;51.074;17.004;2022-08-25T15:30:49;33.35;;;6.20;;
46653;SDS011;38960;51.074;17.004;2022-08-25T15:33:15;30.70;;;6.45;;
46653;SDS011;38960;51.074;17.004;2022-08-25T15:35:41;27.50;;;6.57;;
46653;SDS011;38960;51.074;17.004;2022-08-25T15:38:07;22.35;;;5.43;;
46653;SDS011;38960;51.074;17.004;2022-08-25T15:40:34;28.88;;;5.88;;
46653;SDS011;38960;51.074;17.004;2022-08-25T15:43:01;33.60;;;6.18;;
46653;SDS011;38960;51.074;17.004;2022-08-25T15:45:27;40.03;;;5.95;;
46653;SDS011;38960;51.074;17.004;2022-08-25T15:47:53;37.38;;;6.85;;
46653;SDS011;38960;51.074;17.004;2022-08-25T15:50:19;38.72;;;6.65;;
46653;SDS011;38960;51.074;17.004;2022-08-25T15:52:46;33.08;;;6.85;;
46653;SDS011;38960;51.074;17.004;2022-08-25T15:55:11;27.95;;;6.88;;
46653;SDS011;38960;51.074;17.004;2022-08-25T15:57:37;31.15;;;6.03;;
46653;SDS011;38960;51.074;17.004;2022-08-25T16:00:05;25.08;;;6.45;;
46653;SDS011;38960;51.074;17.004;2022-08-25T16:02:32;27.02;;;7.28;;
46653;SDS011;38960;51.074;17.004;2022-08-25T16:04:59;29.02;;;6.40;;
46653;SDS011;38960;51.074;17.004;2022-08-25T16:07:25;39.53;;;7.18;;
46653;SDS011;38960;51.074;17.004;2022-08-25T16:09:53;30.70;;;6.72;;
46653;SDS011;38960;51.074;17.004;2022-08-25T16:12:19;26.17;;;6.32;;
46653;SDS011;38960;51.074;17.004;2022-08-25T16:14:45;30.73;;;6.20;;
46653;SDS011;38960;51.074;17.004;2022-08-25T16:17:11;29.60;;;6.20;;
46653;SDS011;38960;51.074;17.004;2022-08-25T16:19:36;25.02;;;5.85;;